CLYO2: Little River nr Cloudy 5ENE

Data processed at Fri Mar 09 2018 23:10


All information presented herein is the property of the government of the United States of America and may be revised or deleted at any time without prior notice.
Dissemination of this information without the expressed written consent of the Public Affairs Office, Tulsa District U.S. Army Corps of Engineers is strictly prohibited.
These data are gathered electronically and, as presented, have not undergone any form of quality control. These data are not guaranteed to be valid or correct.
Go to home page.
Go to station list.

Downstream station:


Previous Day
Next Day
Current Day
    
SHEF ID:       CLYO2     Little River nr Cloudy 5ENE
STATION TYPE:  

               PRECIP     STAGE  RIV-FLOW   VOLTAGE  BAT-LOAD
                   in        ft       cfs      volt      volt
              Ccp-Rev   Ccp-Rev   Ccp-Rev   Ccp-Rev   Ccp-Rev
(US/Central)
03/07 00:00      0.00      5.14       698     12.65     12.65
03/07 01:00      0.00      5.14       698     12.65     12.60
03/07 02:00      0.00      5.14       698     12.60     12.60
03/07 03:00      0.00      5.12       680     12.60     12.54
03/07 04:00      0.00      5.12       680     12.54     12.54
03/07 05:00      0.00      5.12       680     12.54     12.48
03/07 06:00      0.00      5.09       653     12.54     12.48
03/07 07:00      0.00      5.09       653     12.54     12.42
03/07 08:00      0.00      5.08       644     13.00     12.42
03/07 09:00      0.00      5.07       635     14.00     13.07
03/07 10:00      0.00      5.07       635     13.59     13.77
03/07 11:00      0.00      5.06       626     13.65     13.48
03/07 12:00      0.00      5.07       635     14.06     13.48
03/07 13:00      0.00      5.04       612     13.53     13.42
03/07 14:00      0.00      5.04       612     13.53     13.42
03/07 15:00      0.00      5.02       601     13.53     13.36
03/07 16:00      0.00      5.02       601     13.53     13.36
03/07 17:00      0.00      5.01       596     13.48     13.36
03/07 18:00      0.00      5.00       591     13.30     13.30
03/07 19:00      0.00      5.01       596     13.00     13.18
03/07 20:00      0.00      4.98       580     12.83     12.89
03/07 21:00      0.00      4.99       585     12.71     12.71
03/07 22:00      0.00      4.98       580     12.65     12.65
03/07 23:00      0.00      4.98       580     12.65     12.60